Time;durP1;ratioP1;P1;durP2;ratioP2;P2;SDS_P1;SDS_P2;PMS_P1;PMS_P2;Temp;Humidity;BMP_temperature;BMP_pressure;BME280_temperature;BME280_humidity;BME280_pressure;Samples;Min_cycle;Max_cycle;Signal;HPM_P1;HPM_P2
2023/09/06 00:00:34;;;;;;;2.53;0.70;;;21.50;99.90;;;;;;5032203;28;20126;-71
2023/09/06 00:03:00;;;;;;;8.15;0.65;;;21.40;99.90;;;;;;5037734;28;20484;-71
2023/09/06 00:05:26;;;;;;;2.17;0.90;;;21.30;99.90;;;;;;5038723;28;20049;-71
2023/09/06 00:07:52;;;;;;;2.30;0.95;;;21.40;99.90;;;;;;5041893;28;20065;-70
2023/09/06 00:10:18;;;;;;;9.05;0.85;;;21.30;99.90;;;;;;5035555;28;20099;-70
2023/09/06 00:12:45;;;;;;;4.88;1.15;;;21.30;99.90;;;;;;5041811;28;20045;-72
2023/09/06 00:15:10;;;;;;;2.05;0.70;;;21.30;99.90;;;;;;5041005;28;20052;-71
2023/09/06 00:17:37;;;;;;;2.63;0.90;;;21.20;99.90;;;;;;5036748;28;20029;-71
2023/09/06 00:20:24;;;;;;;3.05;0.88;;;21.20;99.90;;;;;;5034574;28;20029;-71
2023/09/06 00:23:08;;;;;;;3.90;0.80;;;21.10;99.90;;;;;;5029865;28;20056;-71
2023/09/06 00:25:34;;;;;;;1.35;0.70;;;21.00;99.90;;;;;;5031966;28;20033;-71
2023/09/06 00:28:06;;;;;;;3.03;0.77;;;21.00;99.90;;;;;;5034902;28;20036;-70
2023/09/06 00:30:33;;;;;;;6.13;1.13;;;21.00;99.90;;;;;;5033363;28;20061;-71
2023/09/06 00:32:59;;;;;;;2.08;0.90;;;20.90;99.90;;;;;;5041715;28;20434;-71
2023/09/06 00:35:26;;;;;;;3.05;1.08;;;20.80;99.90;;;;;;5032431;28;20032;-71
2023/09/06 00:37:53;;;;;;;3.65;0.90;;;20.70;99.90;;;;;;5030416;28;20037;-71
2023/09/06 00:40:21;;;;;;;6.65;1.48;;;20.70;99.90;;;;;;5033355;28;20029;-71
2023/09/06 00:42:56;;;;;;;7.45;0.82;;;20.70;99.90;;;;;;5037723;28;20043;-72
2023/09/06 00:45:25;;;;;;;2.67;0.77;;;20.60;99.90;;;;;;5032343;28;20605;-71
2023/09/06 00:47:53;;;;;;;3.08;1.10;;;20.50;99.90;;;;;;5036639;28;20082;-71
2023/09/06 00:50:20;;;;;;;4.60;0.95;;;20.40;99.90;;;;;;5029986;28;20521;-71
2023/09/06 00:52:48;;;;;;;4.40;1.45;;;20.40;99.90;;;;;;5033362;28;20038;-73
2023/09/06 00:55:13;;;;;;;1.35;0.80;;;20.40;99.90;;;;;;5031313;28;20527;-72
2023/09/06 00:57:40;;;;;;;3.40;1.20;;;20.30;99.90;;;;;;5031559;28;20033;-73
2023/09/06 01:00:17;;;;;;;3.50;0.90;;;20.30;99.90;;;;;;5031232;28;20033;-71
2023/09/06 01:02:44;;;;;;;3.03;1.00;;;20.30;99.90;;;;;;5029894;28;20053;-71
2023/09/06 01:05:10;;;;;;;3.15;0.95;;;20.20;99.90;;;;;;5027533;28;20413;-71
2023/09/06 01:07:38;;;;;;;1.77;0.82;;;20.20;99.90;;;;;;5035077;28;20037;-70
2023/09/06 01:10:04;;;;;;;2.47;1.08;;;20.10;99.90;;;;;;5026879;28;20121;-70
2023/09/06 01:12:30;;;;;;;3.42;1.15;;;20.10;99.90;;;;;;5035839;28;20043;-71
2023/09/06 01:14:56;;;;;;;3.58;1.08;;;20.10;99.90;;;;;;5029734;28;20144;-72
2023/09/06 01:17:26;;;;;;;3.88;1.30;;;20.00;99.90;;;;;;5030744;28;20587;-72
2023/09/06 01:19:57;;;;;;;2.33;1.05;;;20.00;99.90;;;;;;5027194;28;20037;-70
2023/09/06 01:22:26;;;;;;;;;;;20.00;99.90;;;;;;5039099;28;20041;-70
2023/09/06 01:24:52;;;;;;;5.03;1.20;;;20.10;99.90;;;;;;5026106;28;19956;-72
2023/09/06 01:27:18;;;;;;;3.60;1.45;;;20.00;99.90;;;;;;5038403;28;20739;-71
2023/09/06 01:29:44;;;;;;;3.97;1.38;;;20.00;99.90;;;;;;5026446;28;20997;-70
2023/09/06 01:32:10;;;;;;;4.45;1.08;;;20.00;99.90;;;;;;5033985;28;20120;-72
2023/09/06 01:34:35;;;;;;;2.47;1.17;;;19.90;99.90;;;;;;5035743;28;20421;-71
2023/09/06 01:37:01;;;;;;;2.20;0.98;;;19.90;99.90;;;;;;5027780;28;20045;-71
2023/09/06 01:39:26;;;;;;;3.80;1.00;;;19.80;99.90;;;;;;5033804;28;20083;-72
2023/09/06 01:41:52;;;;;;;2.17;1.20;;;19.80;99.90;;;;;;5032534;28;20044;-71
2023/09/06 01:44:18;;;;;;;3.28;1.50;;;19.70;99.90;;;;;;5029973;28;20038;-70
2023/09/06 01:46:45;;;;;;;5.45;1.42;;;19.70;99.90;;;;;;5036040;28;20631;-71
2023/09/06 01:49:11;;;;;;;2.05;1.15;;;19.60;99.90;;;;;;5038721;28;20036;-71
2023/09/06 01:51:36;;;;;;;3.15;1.27;;;19.60;99.90;;;;;;5035986;28;20033;-71
2023/09/06 01:54:07;;;;;;;2.55;1.50;;;19.60;99.90;;;;;;5034449;28;20040;-71
2023/09/06 01:56:32;;;;;;;;;;;19.60;99.90;;;;;;5035661;28;20103;-70
2023/09/06 01:58:58;;;;;;;6.72;1.42;;;19.50;99.90;;;;;;5033905;28;20376;-71
2023/09/06 02:01:24;;;;;;;4.70;1.63;;;19.50;99.90;;;;;;5031520;28;20036;-72
2023/09/06 02:03:49;;;;;;;4.70;1.63;;;19.50;99.90;;;;;;5033733;28;20156;-70
2023/09/06 02:06:15;;;;;;;2.65;1.33;;;19.50;99.90;;;;;;5034222;28;20485;-71
2023/09/06 02:08:40;;;;;;;4.28;2.05;;;19.50;99.90;;;;;;5031295;28;20455;-72
2023/09/06 02:11:06;;;;;;;2.65;1.73;;;19.50;99.90;;;;;;5037738;28;20040;-70
2023/09/06 02:13:33;;;;;;;2.60;1.40;;;19.50;99.90;;;;;;5037617;28;20509;-70
2023/09/06 02:16:02;;;;;;;4.05;1.98;;;19.40;99.90;;;;;;5033740;28;20144;-71
2023/09/06 02:18:28;;;;;;;3.72;1.38;;;19.40;99.90;;;;;;5034625;28;20029;-70
2023/09/06 02:20:57;;;;;;;6.10;1.63;;;19.40;99.90;;;;;;5033983;28;20029;-70
2023/09/06 02:23:22;;;;;;;4.78;1.52;;;19.40;99.90;;;;;;5034773;28;20029;-71
2023/09/06 02:25:48;;;;;;;3.25;2.20;;;19.40;99.90;;;;;;5038517;28;20104;-70
2023/09/06 02:28:17;;;;;;;6.60;1.75;;;19.40;99.90;;;;;;5036908;28;20030;-71
2023/09/06 02:30:43;;;;;;;3.88;1.55;;;19.40;99.90;;;;;;5033047;28;20090;-72
2023/09/06 02:33:14;;;;;;;16.50;1.63;;;19.30;99.90;;;;;;5035099;28;20105;-71
2023/09/06 02:35:40;;;;;;;2.60;1.48;;;19.30;99.90;;;;;;5037487;28;20053;-72
2023/09/06 02:38:10;;;;;;;3.72;1.65;;;19.20;99.90;;;;;;5031743;28;20049;-72
2023/09/06 02:40:36;;;;;;;3.75;1.73;;;19.20;99.90;;;;;;5033693;28;20048;-72
2023/09/06 02:43:04;;;;;;;3.35;1.73;;;19.20;99.90;;;;;;5032395;28;20497;-72
2023/09/06 02:45:36;;;;;;;3.00;1.50;;;19.10;99.90;;;;;;5040410;28;20033;-72
2023/09/06 02:48:06;;;;;;;2.40;1.30;;;19.10;99.90;;;;;;5028484;28;20041;-71
2023/09/06 02:50:34;;;;;;;6.68;1.90;;;19.10;99.90;;;;;;5035354;28;20124;-71
2023/09/06 02:53:01;;;;;;;3.88;1.55;;;19.10;99.90;;;;;;5036334;28;20030;-70
2023/09/06 02:55:27;;;;;;;3.47;1.85;;;19.00;99.90;;;;;;5039144;28;20035;-71
2023/09/06 02:57:55;;;;;;;4.93;1.58;;;19.00;99.90;;;;;;5036575;28;20464;-72
2023/09/06 03:00:25;;;;;;;5.38;1.80;;;19.10;99.90;;;;;;5039223;28;20058;-70
2023/09/06 03:02:59;;;;;;;3.60;1.55;;;19.00;99.90;;;;;;5035010;28;20061;-70
2023/09/06 03:05:26;;;;;;;4.85;1.45;;;19.00;99.90;;;;;;5035534;28;20021;-71
2023/09/06 03:10:23;;;;;;;;;;;19.00;99.90;;;;;;5020474;28;20041;-70
2023/09/06 03:12:55;;;;;;;3.60;1.73;;;19.00;99.90;;;;;;5017756;28;19928;-72
2023/09/06 03:15:22;;;;;;;2.63;1.40;;;19.00;99.90;;;;;;5019160;28;20396;-71
2023/09/06 03:17:49;;;;;;;2.65;1.25;;;18.90;99.90;;;;;;5008361;28;20044;-72
2023/09/06 03:20:34;;;;;;;2.72;1.75;;;18.90;99.90;;;;;;4992067;28;20077;-72
2023/09/06 03:23:17;;;;;;;3.42;1.85;;;18.90;99.90;;;;;;4996152;28;20030;-71
2023/09/06 03:25:47;;;;;;;4.82;2.10;;;18.90;99.90;;;;;;4997862;28;20108;-73
2023/09/06 03:28:14;;;;;;;6.90;2.45;;;18.80;99.90;;;;;;4993083;28;20033;-73
2023/09/06 03:30:40;;;;;;;7.30;1.65;;;18.80;99.90;;;;;;4994472;28;20022;-71
2023/09/06 03:33:06;;;;;;;4.32;2.38;;;18.90;99.90;;;;;;4990670;28;20034;-73
2023/09/06 03:35:32;;;;;;;5.03;1.92;;;18.90;99.90;;;;;;4992718;28;20030;-72
2023/09/06 03:37:58;;;;;;;4.53;1.90;;;18.90;99.90;;;;;;4993335;28;20520;-73
2023/09/06 03:40:25;;;;;;;4.18;1.92;;;18.90;99.90;;;;;;4994305;28;20066;-71
2023/09/06 03:42:54;;;;;;;5.45;2.05;;;18.80;99.90;;;;;;4995631;28;20045;-72
2023/09/06 03:45:24;;;;;;;5.18;2.15;;;18.70;99.90;;;;;;5010054;28;20041;-71
2023/09/06 03:47:54;;;;;;;4.28;1.60;;;18.70;99.90;;;;;;5010221;28;20048;-71
2023/09/06 03:50:23;;;;;;;4.72;2.03;;;18.70;99.90;;;;;;5001198;28;20382;-71
2023/09/06 03:52:50;;;;;;;4.70;2.13;;;18.60;99.90;;;;;;5009472;28;20034;-71
2023/09/06 03:55:16;;;;;;;3.20;1.80;;;18.60;99.90;;;;;;5005426;28;20323;-70
2023/09/06 03:57:43;;;;;;;5.75;2.65;;;18.60;99.90;;;;;;5008004;28;20128;-71
2023/09/06 04:00:24;;;;;;;7.18;2.38;;;18.50;99.90;;;;;;5003908;28;20030;-73
2023/09/06 04:02:52;;;;;;;5.25;2.00;;;18.60;99.90;;;;;;4990232;28;20847;-70
2023/09/06 04:05:22;;;;;;;3.38;1.92;;;18.60;99.90;;;;;;4996670;28;20061;-71
2023/09/06 04:07:58;;;;;;;7.05;2.40;;;18.60;99.90;;;;;;5003240;28;20096;-70
2023/09/06 04:10:27;;;;;;;4.97;2.30;;;18.60;99.90;;;;;;4992960;28;20066;-73
2023/09/06 04:12:55;;;;;;;4.93;2.28;;;18.50;99.90;;;;;;4991157;28;20595;-70
2023/09/06 04:15:21;;;;;;;6.43;2.83;;;18.50;99.90;;;;;;5000758;28;20029;-72
2023/09/06 04:17:57;;;;;;;7.50;2.42;;;18.50;99.90;;;;;;4990531;28;20085;-71
2023/09/06 04:20:35;;;;;;;3.28;1.75;;;18.50;99.90;;;;;;4991197;28;20026;-71
2023/09/06 04:23:01;;;;;;;4.78;2.17;;;18.40;99.90;;;;;;4995886;28;20141;-71
2023/09/06 04:25:28;;;;;;;5.32;2.13;;;18.40;99.90;;;;;;4989621;28;20050;-72
2023/09/06 04:27:57;;;;;;;6.70;2.53;;;18.40;99.90;;;;;;4990121;28;20104;-71
2023/09/06 04:30:24;;;;;;;4.68;1.92;;;18.30;99.90;;;;;;4988786;28;20463;-70
2023/09/06 04:32:50;;;;;;;4.97;2.30;;;18.40;99.90;;;;;;4993361;28;20045;-71
2023/09/06 04:35:16;;;;;;;4.72;1.73;;;18.40;99.90;;;;;;4996069;28;20498;-72
2023/09/06 04:37:42;;;;;;;5.13;2.28;;;18.40;99.90;;;;;;4996083;28;20376;-72
2023/09/06 04:40:12;;;;;;;4.40;2.25;;;18.30;99.90;;;;;;4991077;28;20031;-72
2023/09/06 04:42:39;;;;;;;6.90;3.20;;;18.30;99.90;;;;;;4995127;28;20034;-72
2023/09/06 04:45:09;;;;;;;9.02;2.38;;;18.30;99.90;;;;;;4994563;28;20116;-70
2023/09/06 04:47:35;;;;;;;3.53;1.95;;;18.30;99.90;;;;;;4994553;28;20038;-72
2023/09/06 04:50:01;;;;;;;5.63;2.33;;;18.20;99.90;;;;;;4989013;28;20034;-73
2023/09/06 04:52:27;;;;;;;6.55;2.22;;;18.20;99.90;;;;;;4991621;28;20030;-73
2023/09/06 04:54:53;;;;;;;6.82;2.28;;;18.30;99.90;;;;;;4988645;28;20048;-72
2023/09/06 04:57:18;;;;;;;5.93;2.05;;;18.30;99.90;;;;;;4993338;28;20193;-70
2023/09/06 04:59:44;;;;;;;7.95;3.03;;;18.30;99.90;;;;;;5000768;28;20468;-71
2023/09/06 05:02:10;;;;;;;4.50;2.33;;;18.40;99.90;;;;;;4996734;28;20038;-71
2023/09/06 05:04:36;;;;;;;12.77;2.28;;;18.30;99.90;;;;;;4994997;28;20030;-73
2023/09/06 05:07:05;;;;;;;6.93;2.67;;;18.30;99.90;;;;;;5001705;28;20041;-71
2023/09/06 05:09:32;;;;;;;8.07;3.10;;;18.40;99.90;;;;;;4998233;28;20065;-71
2023/09/06 05:11:57;;;;;;;9.65;2.90;;;18.40;99.90;;;;;;4999294;28;20043;-73
2023/09/06 05:14:23;;;;;;;9.15;3.08;;;18.40;99.90;;;;;;5002869;28;20056;-71
2023/09/06 05:16:49;;;;;;;5.68;2.97;;;18.40;99.90;;;;;;4999920;28;20507;-73
2023/09/06 05:19:14;;;;;;;7.18;2.60;;;18.40;99.90;;;;;;5004421;28;20088;-71
2023/09/06 05:21:40;;;;;;;8.30;2.63;;;18.40;99.90;;;;;;5005197;28;20034;-72
2023/09/06 05:24:05;;;;;;;9.35;2.95;;;18.40;99.90;;;;;;5001787;28;20033;-72
2023/09/06 05:26:33;;;;;;;7.00;3.00;;;18.40;99.90;;;;;;5005395;28;20034;-73
2023/09/06 05:28:59;;;;;;;15.13;3.00;;;18.40;99.90;;;;;;5005317;28;20042;-73
2023/09/06 05:31:24;;;;;;;5.15;2.60;;;18.40;99.90;;;;;;5005148;28;20042;-72
2023/09/06 05:33:50;;;;;;;9.50;2.50;;;18.40;99.90;;;;;;5006195;28;20045;-71
2023/09/06 05:36:16;;;;;;;11.35;2.83;;;18.40;99.90;;;;;;5007509;28;20037;-73
2023/09/06 05:38:41;;;;;;;8.57;3.47;;;18.40;99.90;;;;;;5005380;28;20428;-74
2023/09/06 05:41:07;;;;;;;8.40;2.47;;;18.40;99.90;;;;;;5008107;28;20042;-73
2023/09/06 05:43:32;;;;;;;4.60;2.20;;;18.40;99.90;;;;;;5003044;28;20122;-72
2023/09/06 05:45:58;;;;;;;11.13;3.20;;;18.40;99.90;;;;;;5010284;28;20116;-72
2023/09/06 05:48:23;;;;;;;7.20;2.55;;;18.50;99.90;;;;;;5006891;28;20121;-72
2023/09/06 05:50:49;;;;;;;8.13;2.35;;;18.50;99.90;;;;;;5003822;28;20050;-72
2023/09/06 05:53:15;;;;;;;6.85;2.92;;;18.50;99.90;;;;;;5007864;28;20045;-74
2023/09/06 05:55:40;;;;;;;11.68;2.92;;;18.50;99.90;;;;;;5005805;28;20568;-71
2023/09/06 05:58:06;;;;;;;5.75;2.78;;;18.60;99.90;;;;;;5006188;28;20048;-73
2023/09/06 06:00:33;;;;;;;5.03;2.60;;;18.60;99.90;;;;;;5007194;28;20036;-71
2023/09/06 06:03:01;;;;;;;5.90;2.55;;;18.70;99.90;;;;;;5006153;28;20033;-74
2023/09/06 06:05:28;;;;;;;5.13;2.90;;;18.70;99.90;;;;;;5006827;28;20037;-72
2023/09/06 06:07:54;;;;;;;6.55;2.97;;;18.80;99.90;;;;;;5004153;28;20042;-72
2023/09/06 06:10:19;;;;;;;7.25;2.90;;;19.00;99.90;;;;;;5007645;28;20095;-71
2023/09/06 06:12:46;;;;;;;5.78;2.85;;;19.20;99.90;;;;;;5006012;28;20460;-73
2023/09/06 06:15:15;;;;;;;6.22;2.90;;;19.30;99.90;;;;;;5007470;28;20048;-71
2023/09/06 06:17:41;;;;;;;5.03;3.25;;;19.40;99.90;;;;;;5004893;28;20030;-70
2023/09/06 06:20:09;;;;;;;6.07;2.60;;;19.40;99.90;;;;;;5007735;28;20030;-71
2023/09/06 06:22:39;;;;;;;5.55;2.78;;;19.50;99.90;;;;;;5007012;28;20066;-70
2023/09/06 06:25:10;;;;;;;8.00;2.97;;;19.60;99.90;;;;;;5004706;28;20147;-72
2023/09/06 06:27:36;;;;;;;;;;;19.70;99.90;;;;;;5007146;28;20041;-72
2023/09/06 06:30:05;;;;;;;11.77;2.85;;;19.90;99.90;;;;;;5006271;28;19928;-72
2023/09/06 06:32:31;;;;;;;5.07;3.05;;;20.00;99.90;;;;;;5003932;28;20455;-72
2023/09/06 06:35:00;;;;;;;8.82;3.10;;;20.20;99.90;;;;;;5005987;28;20057;-72
2023/09/06 06:37:26;;;;;;;6.50;2.70;;;20.40;99.90;;;;;;5006584;28;20048;-72
2023/09/06 06:39:52;;;;;;;6.10;2.92;;;20.50;99.90;;;;;;5005353;28;20040;-72
2023/09/06 06:42:18;;;;;;;6.57;3.67;;;20.50;99.90;;;;;;5005445;28;20037;-72
2023/09/06 06:44:47;;;;;;;6.75;3.00;;;20.50;99.90;;;;;;5005671;28;20030;-72
2023/09/06 06:47:13;;;;;;;22.77;3.50;;;20.50;99.90;;;;;;5008387;28;20049;-72
2023/09/06 06:49:39;;;;;;;6.70;2.72;;;20.60;99.90;;;;;;5004240;28;20081;-72
2023/09/06 06:52:04;;;;;;;9.35;2.47;;;20.60;99.90;;;;;;5004289;28;20038;-71
2023/09/06 06:54:31;;;;;;;4.93;2.80;;;20.60;99.90;;;;;;5006906;28;20036;-71
2023/09/06 06:56:56;;;;;;;9.40;3.08;;;20.70;99.90;;;;;;5002881;28;20038;-72
2023/09/06 06:59:22;;;;;;;9.23;3.55;;;20.70;99.90;;;;;;5008206;28;20084;-72
2023/09/06 07:01:47;;;;;;;10.48;3.33;;;20.80;99.90;;;;;;4996358;28;20599;-71
2023/09/06 07:04:13;;;;;;;7.57;3.40;;;20.80;99.90;;;;;;4998496;28;20038;-72
2023/09/06 07:06:39;;;;;;;6.82;3.30;;;20.90;99.90;;;;;;5002018;28;20030;-73
2023/09/06 07:09:05;;;;;;;4.80;2.83;;;21.00;99.90;;;;;;5004387;28;20088;-72
2023/09/06 07:11:31;;;;;;;4.93;2.33;;;21.10;99.90;;;;;;5006519;28;20409;-72
2023/09/06 07:13:57;;;;;;;5.28;2.53;;;21.20;99.90;;;;;;5006558;28;20084;-73
2023/09/06 07:16:22;;;;;;;5.55;2.72;;;21.20;99.90;;;;;;5008770;28;20042;-72
2023/09/06 07:18:48;;;;;;;4.43;2.35;;;21.20;99.90;;;;;;5003638;28;20042;-72
2023/09/06 07:21:15;;;;;;;8.10;2.92;;;21.20;99.90;;;;;;5001430;28;20041;-72
2023/09/06 07:23:41;;;;;;;5.20;2.58;;;21.30;99.90;;;;;;5005652;28;20034;-71
2023/09/06 07:26:07;;;;;;;3.55;2.20;;;21.30;99.90;;;;;;5006779;28;20033;-70
2023/09/06 07:28:46;;;;;;;8.93;2.60;;;21.30;99.90;;;;;;5004731;28;20168;-71
2023/09/06 07:31:14;;;;;;;5.50;3.20;;;21.40;99.90;;;;;;5001452;28;20049;-71
2023/09/06 07:33:40;;;;;;;5.00;2.72;;;21.40;99.90;;;;;;5006064;28;20117;-70
2023/09/06 07:36:06;;;;;;;5.47;3.15;;;21.50;99.90;;;;;;5002668;28;20580;-72
2023/09/06 07:38:32;;;;;;;8.32;2.60;;;21.60;99.90;;;;;;5008149;28;20053;-71
2023/09/06 07:41:06;;;;;;;7.03;2.45;;;21.70;99.90;;;;;;5004785;28;20290;-70
2023/09/06 07:43:33;;;;;;;6.00;2.70;;;21.80;99.90;;;;;;5004865;28;20576;-72
2023/09/06 07:46:00;;;;;;;9.30;3.00;;;21.80;99.90;;;;;;5007869;28;20061;-69
2023/09/06 07:48:28;;;;;;;5.53;3.35;;;21.90;99.90;;;;;;5005078;28;20034;-73
2023/09/06 07:50:54;;;;;;;5.30;2.67;;;22.00;99.90;;;;;;5002027;28;20556;-72
2023/09/06 07:53:20;;;;;;;7.43;2.85;;;22.10;99.90;;;;;;5004153;28;20109;-71
2023/09/06 07:55:46;;;;;;;6.05;3.00;;;22.20;99.90;;;;;;5007150;28;20050;-73
2023/09/06 07:58:15;;;;;;;5.18;2.42;;;22.30;99.90;;;;;;5004488;28;20049;-72
2023/09/06 08:00:42;;;;;;;4.53;2.40;;;22.30;99.90;;;;;;5005486;28;20033;-71
2023/09/06 08:03:08;;;;;;;4.32;2.20;;;22.40;99.90;;;;;;5002816;28;20080;-72
2023/09/06 08:05:37;;;;;;;5.70;2.40;;;22.40;99.90;;;;;;5006215;28;20026;-70
2023/09/06 08:08:08;;;;;;;9.27;2.40;;;22.50;99.90;;;;;;5003384;28;20037;-71
2023/09/06 08:10:35;;;;;;;9.80;2.47;;;22.50;99.90;;;;;;5005030;28;20141;-70
2023/09/06 08:13:00;;;;;;;3.03;2.08;;;22.60;99.90;;;;;;5003316;28;20034;-71
2023/09/06 08:15:27;;;;;;;7.05;2.72;;;22.70;99.90;;;;;;5002569;28;20053;-72
2023/09/06 08:17:53;;;;;;;7.03;2.25;;;22.90;99.90;;;;;;4999485;28;20040;-70
2023/09/06 08:20:19;;;;;;;8.18;3.72;;;23.00;99.90;;;;;;4998356;28;20042;-72
2023/09/06 08:22:47;;;;;;;4.22;2.28;;;23.20;99.90;;;;;;4999076;28;20065;-71
2023/09/06 08:25:17;;;;;;;9.43;2.67;;;23.20;99.90;;;;;;5005715;28;20041;-71
2023/09/06 08:27:43;;;;;;;4.15;2.22;;;23.30;99.90;;;;;;5002253;28;20038;-71
2023/09/06 08:30:11;;;;;;;8.30;2.63;;;23.30;99.90;;;;;;5002260;28;20084;-72
2023/09/06 08:32:38;;;;;;;3.88;2.15;;;23.50;99.90;;;;;;5003138;28;20081;-73
2023/09/06 08:35:04;;;;;;;4.28;2.15;;;23.50;99.90;;;;;;5004938;28;20474;-73
2023/09/06 08:37:30;;;;;;;6.13;2.70;;;23.60;99.90;;;;;;5001328;28;20056;-72
2023/09/06 08:39:56;;;;;;;5.25;2.67;;;23.60;99.90;;;;;;5004203;28;20038;-72
2023/09/06 08:42:23;;;;;;;4.05;2.33;;;23.70;99.90;;;;;;5003808;28;20503;-71
2023/09/06 08:44:49;;;;;;;9.25;2.95;;;23.80;99.90;;;;;;5002231;28;20056;-71
2023/09/06 08:47:18;;;;;;;4.25;1.98;;;23.90;99.90;;;;;;5004472;28;20474;-71
2023/09/06 08:49:46;;;;;;;5.63;2.00;;;24.00;99.90;;;;;;5005125;28;20037;-71
2023/09/06 08:52:14;;;;;;;4.22;2.05;;;24.00;99.90;;;;;;5003796;28;20042;-72
2023/09/06 08:54:42;;;;;;;3.97;2.13;;;24.10;99.90;;;;;;5003521;28;20034;-70
2023/09/06 08:57:08;;;;;;;4.95;2.15;;;24.20;99.90;;;;;;5002408;28;20038;-70
2023/09/06 08:59:34;;;;;;;2.97;2.05;;;24.40;99.90;;;;;;5004544;28;20033;-70
2023/09/06 09:02:00;;;;;;;4.75;2.30;;;24.50;99.90;;;;;;5000693;28;20148;-70
2023/09/06 09:04:26;;;;;;;10.55;2.60;;;24.50;99.90;;;;;;5001811;28;20066;-70
2023/09/06 09:06:51;;;;;;;4.85;2.08;;;24.50;99.90;;;;;;5166038;22;20836;-71
2023/09/06 09:09:18;;;;;;;5.90;2.38;;;24.60;99.90;;;;;;5017494;28;20038;-71
2023/09/06 09:11:51;;;;;;;8.63;2.13;;;24.80;99.90;;;;;;5018211;28;20033;-73
2023/09/06 09:14:26;;;;;;;10.57;2.65;;;24.80;99.90;;;;;;5021299;28;20044;-71
2023/09/06 09:16:59;;;;;;;4.78;1.75;;;24.90;99.90;;;;;;5011297;28;20040;-72
2023/09/06 09:19:25;;;;;;;6.07;1.73;;;25.00;99.90;;;;;;4999995;28;20093;-70
2023/09/06 09:21:52;;;;;;;2.60;1.75;;;25.00;99.90;;;;;;4999221;28;20042;-70
2023/09/06 09:24:25;;;;;;;5.22;2.00;;;25.00;99.90;;;;;;4998941;28;20041;-70
2023/09/06 09:26:51;;;;;;;2.92;1.67;;;25.20;99.90;;;;;;4999270;28;20041;-70
2023/09/06 09:29:16;;;;;;;3.80;1.98;;;25.20;99.90;;;;;;5003074;28;20060;-71
2023/09/06 09:31:44;;;;;;;6.63;1.60;;;25.30;99.90;;;;;;5005546;28;20520;-70
2023/09/06 09:34:12;;;;;;;5.40;1.58;;;25.40;99.90;;;;;;5001553;28;20035;-70
2023/09/06 09:36:38;;;;;;;8.02;2.53;;;25.40;99.90;;;;;;5001357;28;20486;-72
2023/09/06 09:39:08;;;;;;;2.63;1.77;;;25.50;99.90;;;;;;5003746;28;20669;-70
2023/09/06 09:41:35;;;;;;;3.83;1.98;;;25.60;99.90;;;;;;5002883;28;20061;-71
2023/09/06 09:44:19;;;;;;;3.92;1.58;;;25.70;99.90;;;;;;5001283;28;20519;-69
2023/09/06 09:46:45;;;;;;;10.93;1.67;;;25.80;99.90;;;;;;5002430;28;20041;-70
2023/09/06 09:49:12;;;;;;;7.13;2.05;;;26.00;99.90;;;;;;5000402;28;20042;-72
2023/09/06 09:51:40;;;;;;;2.83;1.55;;;26.10;99.90;;;;;;4999146;28;20072;-70
2023/09/06 09:54:07;;;;;;;3.20;1.75;;;26.10;99.90;;;;;;5000429;28;20042;-70
2023/09/06 09:56:34;;;;;;;5.70;1.50;;;26.20;99.90;;;;;;5003549;28;20625;-71
2023/09/06 09:59:04;;;;;;;3.13;1.35;;;26.30;99.90;;;;;;5002856;28;20046;-72
2023/09/06 10:01:32;;;;;;;4.18;2.17;;;26.40;99.90;;;;;;5001273;28;20845;-70
2023/09/06 10:03:59;;;;;;;4.35;1.50;;;26.40;99.90;;;;;;4998048;28;20073;-70
2023/09/06 10:06:27;;;;;;;2.85;1.40;;;26.50;99.90;;;;;;4998915;28;20113;-71
2023/09/06 10:08:57;;;;;;;3.03;1.27;;;26.50;99.90;;;;;;5004522;28;20049;-71
2023/09/06 10:11:25;;;;;;;3.22;0.98;;;26.50;99.90;;;;;;5006737;28;20133;-71
2023/09/06 10:13:52;;;;;;;5.15;1.48;;;26.60;99.90;;;;;;5007322;28;20038;-72
2023/09/06 10:16:20;;;;;;;4.25;1.17;;;26.70;99.90;;;;;;5006826;28;20080;-72
2023/09/06 10:18:46;;;;;;;2.80;1.23;;;26.70;99.90;;;;;;5005119;28;20497;-71
2023/09/06 10:21:13;;;;;;;1.98;0.90;;;26.80;99.90;;;;;;5006310;28;20037;-71
2023/09/06 10:23:42;;;;;;;3.33;1.02;;;26.80;99.90;;;;;;5011015;28;20045;-72
2023/09/06 10:26:08;;;;;;;4.80;1.63;;;26.90;99.90;;;;;;5007849;28;20042;-70
2023/09/06 10:28:34;;;;;;;3.85;1.30;;;26.90;99.90;;;;;;5008652;28;20029;-72
2023/09/06 10:31:07;;;;;;;7.40;1.20;;;26.90;99.90;;;;;;5006865;28;20057;-71
2023/09/06 10:33:35;;;;;;;3.80;1.63;;;27.00;99.90;;;;;;5002842;28;20046;-70
2023/09/06 10:36:12;;;;;;;3.90;1.30;;;27.10;99.90;;;;;;5002250;28;20037;-71
2023/09/06 10:38:51;;;;;;;5.63;1.52;;;27.20;99.90;;;;;;5003711;28;20038;-71
2023/09/06 10:41:18;;;;;;;4.05;1.30;;;27.20;99.90;;;;;;4998541;28;20042;-71
2023/09/06 10:44:00;;;;;;;2.17;1.30;;;27.30;99.90;;;;;;5000066;28;20023;-72
2023/09/06 10:46:28;;;;;;;8.00;1.83;;;27.30;99.90;;;;;;5006187;28;20038;-71
2023/09/06 10:49:12;;;;;;;2.67;1.00;;;27.20;99.90;;;;;;5000275;28;20048;-70
2023/09/06 10:52:08;;;;;;;7.38;1.63;;;27.20;99.90;;;;;;4998990;28;20042;-73
2023/09/06 10:54:44;;;;;;;5.70;1.20;;;27.20;99.90;;;;;;5003309;28;20515;-72
2023/09/06 10:57:11;;;;;;;9.15;1.83;;;27.30;99.90;;;;;;5002247;28;20168;-70
2023/09/06 11:00:12;;;;;;;7.00;1.50;;;27.30;99.90;;;;;;5003295;28;20112;-71
2023/09/06 11:02:38;;;;;;;3.90;1.10;;;27.20;99.90;;;;;;4999575;28;20036;-72
2023/09/06 11:05:09;;;;;;;3.10;1.23;;;27.20;99.90;;;;;;4997969;28;20037;-72
2023/09/06 11:07:43;;;;;;;3.60;1.02;;;27.20;99.90;;;;;;5001622;28;20041;-72
2023/09/06 11:10:09;;;;;;;3.08;1.20;;;27.20;99.90;;;;;;4998526;28;20060;-73
2023/09/06 11:12:35;;;;;;;4.70;1.58;;;27.10;99.90;;;;;;5000413;28;20041;-71
2023/09/06 11:15:01;;;;;;;1.95;1.23;;;27.10;99.90;;;;;;4996874;28;20029;-69
2023/09/06 11:17:27;;;;;;;1.77;1.00;;;27.20;99.90;;;;;;5007788;28;20362;-71
2023/09/06 11:19:52;;;;;;;4.03;1.35;;;27.20;99.90;;;;;;5005053;28;20424;-72
2023/09/06 11:22:19;;;;;;;2.85;1.30;;;27.30;99.90;;;;;;4998001;28;20489;-71
2023/09/06 11:24:45;;;;;;;2.22;0.90;;;27.30;99.90;;;;;;5001583;28;20034;-70
2023/09/06 11:27:21;;;;;;;2.88;1.23;;;27.30;99.90;;;;;;5006211;28;20030;-70
2023/09/06 11:29:59;;;;;;;2.65;0.90;;;27.20;99.90;;;;;;5002151;28;20140;-70
2023/09/06 11:32:26;;;;;;;2.80;1.00;;;27.20;99.90;;;;;;5000629;28;20068;-70
2023/09/06 11:34:52;;;;;;;5.05;1.25;;;27.20;99.90;;;;;;4999512;28;20044;-71
2023/09/06 11:37:19;;;;;;;4.28;0.98;;;27.20;99.90;;;;;;4999013;28;20037;-71
2023/09/06 11:39:45;;;;;;;3.50;1.35;;;27.20;99.90;;;;;;5004618;28;20030;-70
2023/09/06 11:42:14;;;;;;;5.68;1.13;;;27.20;99.90;;;;;;5002862;28;20121;-71
2023/09/06 11:44:47;;;;;;;2.08;0.90;;;27.30;99.90;;;;;;4998084;28;20033;-71
2023/09/06 11:47:18;;;;;;;1.95;1.00;;;27.30;99.90;;;;;;4999399;28;20791;-70
2023/09/06 11:49:45;;;;;;;1.75;0.82;;;27.30;99.90;;;;;;4999858;28;20026;-71
2023/09/06 11:52:19;;;;;;;1.55;0.80;;;27.50;99.90;;;;;;5000686;28;20109;-70
2023/09/06 11:54:49;;;;;;;3.83;0.70;;;27.40;99.90;;;;;;4997232;28;20076;-71
2023/09/06 11:57:30;;;;;;;1.10;0.70;;;27.40;99.90;;;;;;5000950;28;20030;-70
2023/09/06 12:00:00;;;;;;;1.33;0.70;;;27.40;99.90;;;;;;4997451;28;20080;-72
2023/09/06 12:02:34;;;;;;;2.58;0.82;;;27.50;99.90;;;;;;5000997;28;20026;-71
2023/09/06 12:05:03;;;;;;;1.40;0.60;;;27.50;99.80;;;;;;5000018;28;20030;-72
2023/09/06 12:07:29;;;;;;;3.67;0.70;;;27.50;99.90;;;;;;5001606;28;20033;-71
2023/09/06 12:10:00;;;;;;;4.40;1.05;;;27.50;99.90;;;;;;4998378;28;20049;-73
2023/09/06 12:12:26;;;;;;;6.72;1.10;;;27.40;99.90;;;;;;4998374;28;20034;-71
2023/09/06 12:14:52;;;;;;;2.42;0.60;;;27.50;99.90;;;;;;4997550;28;20095;-72
2023/09/06 12:17:19;;;;;;;2.55;1.10;;;27.50;99.90;;;;;;4999054;28;20032;-71
2023/09/06 12:19:45;;;;;;;3.17;0.70;;;27.50;99.90;;;;;;4998245;28;20048;-71
2023/09/06 12:22:14;;;;;;;1.23;0.73;;;27.50;99.90;;;;;;4999215;28;20493;-70
2023/09/06 12:24:45;;;;;;;1.53;0.53;;;27.60;99.90;;;;;;5000557;28;20072;-71
2023/09/06 12:27:14;;;;;;;1.63;0.50;;;27.60;99.90;;;;;;4998549;28;20085;-71
2023/09/06 12:29:40;;;;;;;0.47;0.30;;;27.60;99.90;;;;;;4996904;28;20030;-71
2023/09/06 12:32:06;;;;;;;2.35;0.60;;;27.60;99.70;;;;;;4999726;28;20049;-71
2023/09/06 12:34:31;;;;;;;1.55;0.73;;;27.50;99.70;;;;;;5000697;28;20121;-72
2023/09/06 12:36:57;;;;;;;1.17;0.60;;;27.70;99.80;;;;;;4997056;28;20453;-73
2023/09/06 12:39:23;;;;;;;1.88;0.88;;;27.70;99.50;;;;;;5000689;28;20038;-72
2023/09/06 12:41:49;;;;;;;1.80;0.60;;;27.70;99.50;;;;;;5000674;28;20038;-73
2023/09/06 12:44:15;;;;;;;2.40;0.50;;;27.60;99.90;;;;;;4997968;28;20443;-72
2023/09/06 12:46:40;;;;;;;11.23;0.80;;;27.60;99.90;;;;;;5007659;28;20437;-70
2023/09/06 12:49:06;;;;;;;4.07;0.68;;;27.70;98.70;;;;;;5000178;28;20034;-73
2023/09/06 12:51:31;;;;;;;1.58;0.60;;;27.70;98.40;;;;;;4998313;28;20031;-71
2023/09/06 12:53:57;;;;;;;2.30;0.80;;;27.70;97.80;;;;;;5000132;28;20042;-71